Time;durP1;ratioP1;P1;durP2;ratioP2;P2;SDS_P1;SDS_P2;PMS_P1;PMS_P2;Temp;Humidity;BMP_temperature;BMP_pressure;BME280_temperature;BME280_humidity;BME280_pressure;Samples;Min_cycle;Max_cycle;Signal;HPM_P1;HPM_P2
2022/01/02 00:01:37;;;;;;;4.47;3.30;;;12.40;99.90;;;;;;5079358;28;20192;-64
2022/01/02 00:04:06;;;;;;;5.07;3.40;;;12.40;99.90;;;;;;5075609;28;20193;-67
2022/01/02 00:06:42;;;;;;;4.45;3.42;;;12.40;99.90;;;;;;5069048;28;20219;-67
2022/01/02 00:09:07;;;;;;;3.80;3.38;;;12.40;99.90;;;;;;5071108;28;20207;-65
2022/01/02 00:11:37;;;;;;;5.20;3.58;;;12.40;99.90;;;;;;5077743;28;20215;-67
2022/01/02 00:14:07;;;;;;;5.35;3.60;;;12.40;99.90;;;;;;5073359;28;20211;-63
2022/01/02 00:16:40;;;;;;;4.13;3.20;;;12.40;99.90;;;;;;5073975;28;20262;-67
2022/01/02 00:19:17;;;;;;;3.95;3.30;;;12.40;99.90;;;;;;5062264;28;20200;-66
2022/01/02 00:21:47;;;;;;;4.85;3.38;;;12.40;99.90;;;;;;5076675;28;20290;-67
2022/01/02 00:24:17;;;;;;;4.32;3.72;;;12.40;99.90;;;;;;5077007;28;20175;-66
2022/01/02 00:26:48;;;;;;;6.22;4.05;;;12.40;99.90;;;;;;5075078;28;20198;-67
2022/01/02 00:29:16;;;;;;;5.30;3.60;;;12.40;99.90;;;;;;5074622;28;20291;-67
2022/01/02 00:31:42;;;;;;;5.00;3.35;;;12.30;99.90;;;;;;5072133;28;20191;-66
2022/01/02 00:34:09;;;;;;;4.28;3.25;;;12.30;99.90;;;;;;5068055;28;20263;-67
2022/01/02 00:36:36;;;;;;;4.55;3.50;;;12.30;99.90;;;;;;5068058;28;20429;-67
2022/01/02 00:39:06;;;;;;;3.88;3.28;;;12.40;99.90;;;;;;5069598;28;20210;-66
2022/01/02 00:41:38;;;;;;;4.57;3.70;;;12.40;99.90;;;;;;5116023;27;20513;-67
2022/01/02 00:44:32;;;;;;;4.60;3.30;;;12.40;99.90;;;;;;5073281;28;20279;-66
2022/01/02 00:47:06;;;;;;;4.20;3.03;;;12.40;99.90;;;;;;5075718;28;20203;-66
2022/01/02 00:49:38;;;;;;;5.40;3.47;;;12.40;99.90;;;;;;5075459;28;20246;-67
2022/01/02 00:52:10;;;;;;;4.80;3.45;;;12.40;99.90;;;;;;5071981;28;20200;-66
2022/01/02 00:54:41;;;;;;;3.75;2.95;;;12.40;99.90;;;;;;5076403;28;20180;-66
2022/01/02 00:57:12;;;;;;;4.85;3.00;;;12.40;99.90;;;;;;5111202;27;20180;-65
2022/01/02 01:00:07;;;;;;;4.72;3.17;;;12.40;99.90;;;;;;5074062;28;20335;-65
2022/01/02 01:02:35;;;;;;;5.82;3.50;;;12.50;99.90;;;;;;5077432;28;20202;-67
2022/01/02 01:05:06;;;;;;;3.85;2.92;;;12.50;99.90;;;;;;5076757;28;20221;-65
2022/01/02 01:07:35;;;;;;;4.18;3.33;;;12.50;99.90;;;;;;5074241;28;20188;-67
2022/01/02 01:10:03;;;;;;;4.07;3.20;;;12.50;99.90;;;;;;5073049;28;20187;-67
2022/01/02 01:12:31;;;;;;;5.45;3.45;;;12.50;99.90;;;;;;5103416;28;20188;-65
2022/01/02 01:14:57;;;;;;;4.22;3.58;;;12.50;99.90;;;;;;5073431;28;20187;-67
2022/01/02 01:17:24;;;;;;;4.28;3.47;;;12.50;99.90;;;;;;5085228;28;20186;-65
2022/01/02 01:19:52;;;;;;;4.82;3.50;;;12.60;99.90;;;;;;5079970;28;20266;-67
2022/01/02 01:22:17;;;;;;;4.60;3.60;;;12.60;99.90;;;;;;5074617;28;20187;-66
2022/01/02 01:24:43;;;;;;;3.90;3.47;;;12.60;99.90;;;;;;5076130;28;20204;-67
2022/01/02 01:27:09;;;;;;;4.25;3.67;;;12.60;99.90;;;;;;5078756;28;20182;-65
2022/01/02 01:29:40;;;;;;;4.28;3.60;;;12.60;99.90;;;;;;5072261;28;20211;-66
2022/01/02 01:32:11;;;;;;;5.57;3.80;;;12.60;99.90;;;;;;5105556;28;20204;-64
2022/01/02 01:34:38;;;;;;;4.38;3.50;;;12.60;99.90;;;;;;5073241;28;20181;-66
2022/01/02 01:37:08;;;;;;;5.20;3.40;;;12.60;99.90;;;;;;5075298;28;20176;-67
2022/01/02 01:39:34;;;;;;;5.15;3.70;;;12.60;99.90;;;;;;5076408;28;20180;-66
2022/01/02 01:42:08;;;;;;;4.30;3.40;;;12.70;99.90;;;;;;5076319;28;20175;-63
2022/01/02 01:47:24;;;;;;;4.05;3.30;;;12.70;99.90;;;;;;5067916;28;20247;-66
2022/01/02 01:49:50;;;;;;;4.32;3.20;;;12.70;99.90;;;;;;5075396;28;20259;-66
2022/01/02 01:52:18;;;;;;;5.22;3.90;;;12.70;99.90;;;;;;5075395;28;20195;-67
2022/01/02 01:54:48;;;;;;;5.07;4.10;;;12.70;99.90;;;;;;5084754;28;20168;-67
2022/01/02 01:57:16;;;;;;;4.32;3.40;;;12.70;99.90;;;;;;5075945;28;20176;-65
2022/01/02 01:59:42;;;;;;;4.25;3.53;;;12.80;99.90;;;;;;5092102;28;20199;-67
2022/01/02 02:02:10;;;;;;;4.43;3.38;;;12.70;99.90;;;;;;5076650;28;20176;-65
2022/01/02 02:04:38;;;;;;;4.05;3.47;;;12.70;99.90;;;;;;5073804;28;20180;-67
2022/01/02 02:07:04;;;;;;;4.75;3.70;;;12.80;99.90;;;;;;5089380;28;20209;-63
2022/01/02 02:09:41;;;;;;;5.40;3.80;;;12.70;99.90;;;;;;5074944;28;20200;-67
2022/01/02 02:12:10;;;;;;;3.97;3.38;;;12.70;99.90;;;;;;5076929;28;20236;-67
2022/01/02 02:14:37;;;;;;;5.03;3.58;;;12.70;99.90;;;;;;5075008;28;20186;-67
2022/01/02 02:17:05;;;;;;;5.20;3.97;;;12.70;99.90;;;;;;5079352;28;20275;-67
2022/01/02 02:19:31;;;;;;;4.55;3.80;;;12.70;99.90;;;;;;5075845;28;20207;-66
2022/01/02 02:21:59;;;;;;;5.05;3.90;;;12.70;99.90;;;;;;5078281;28;20317;-69
2022/01/02 02:24:27;;;;;;;8.15;4.28;;;12.80;99.90;;;;;;5078590;28;20196;-64
2022/01/02 02:26:56;;;;;;;5.65;4.20;;;12.70;99.90;;;;;;5073317;28;20180;-65
2022/01/02 02:29:24;;;;;;;5.07;4.40;;;12.70;99.90;;;;;;5074538;28;20195;-67
2022/01/02 02:31:56;;;;;;;6.03;4.30;;;12.80;99.90;;;;;;5073113;28;20260;-65
2022/01/02 02:34:24;;;;;;;5.72;4.00;;;12.70;99.90;;;;;;5068801;28;20433;-64
2022/01/02 02:36:50;;;;;;;5.85;4.40;;;12.70;99.90;;;;;;5077089;28;20187;-66
2022/01/02 02:39:15;;;;;;;5.68;4.53;;;12.70;99.90;;;;;;5076627;28;20211;-66
2022/01/02 02:41:45;;;;;;;5.03;3.97;;;12.70;99.90;;;;;;5076288;28;20255;-67
2022/01/02 02:44:28;;;;;;;4.90;4.18;;;12.70;99.90;;;;;;5075205;28;20262;-67
2022/01/02 02:49:41;;;;;;;5.18;3.95;;;12.70;99.90;;;;;;5087630;28;20206;-64
2022/01/02 02:52:27;;;;;;;4.53;3.75;;;12.70;99.90;;;;;;5077269;28;20196;-67
2022/01/02 02:54:55;;;;;;;5.20;4.10;;;12.70;99.90;;;;;;5075499;28;20214;-66
2022/01/02 02:57:20;;;;;;;5.93;4.40;;;12.70;99.90;;;;;;5078522;28;20179;-67
2022/01/02 02:59:46;;;;;;;4.85;4.07;;;12.60;99.90;;;;;;5077604;28;20196;-67
2022/01/02 03:02:14;;;;;;;6.28;4.78;;;12.60;99.90;;;;;;5077253;28;20237;-67
2022/01/02 03:04:40;;;;;;;6.55;4.35;;;12.60;99.90;;;;;;5068633;28;20190;-67
2022/01/02 03:07:08;;;;;;;6.88;4.38;;;12.60;99.90;;;;;;5073975;28;20180;-68
2022/01/02 03:12:00;;;;;;;5.07;4.00;;;12.60;99.90;;;;;;5086551;28;20298;-67
2022/01/02 03:14:28;;;;;;;4.72;4.10;;;12.60;99.90;;;;;;5074263;28;20362;-67
2022/01/02 03:16:56;;;;;;;5.38;3.80;;;12.60;99.90;;;;;;5081148;28;20175;-68
2022/01/02 03:19:22;;;;;;;4.25;3.50;;;12.60;99.90;;;;;;5080993;28;20211;-64
2022/01/02 03:21:52;;;;;;;4.07;3.60;;;12.60;99.90;;;;;;5062705;28;20228;-66
2022/01/02 03:24:18;;;;;;;3.97;3.55;;;12.60;99.90;;;;;;5070646;28;20195;-67
2022/01/02 03:26:44;;;;;;;3.83;3.22;;;12.60;99.90;;;;;;5070888;28;20210;-67
2022/01/02 03:29:09;;;;;;;4.38;3.90;;;12.70;99.90;;;;;;5076776;28;20196;-67
2022/01/02 03:31:37;;;;;;;4.85;3.70;;;12.70;99.90;;;;;;5103527;28;20200;-67
2022/01/02 03:34:05;;;;;;;4.78;3.42;;;12.70;99.90;;;;;;5065523;28;20203;-67
2022/01/02 03:36:31;;;;;;;5.03;3.30;;;12.70;99.90;;;;;;5075009;28;20176;-67
2022/01/02 03:39:02;;;;;;;4.35;3.67;;;12.70;99.90;;;;;;5074589;28;20218;-67
2022/01/02 03:41:29;;;;;;;4.90;3.42;;;12.80;99.90;;;;;;5073473;28;20199;-66
2022/01/02 03:43:59;;;;;;;3.60;3.05;;;12.80;99.90;;;;;;5075616;28;20247;-67
2022/01/02 03:46:25;;;;;;;4.85;3.70;;;12.80;99.90;;;;;;5066020;28;20287;-66
2022/01/02 03:48:51;;;;;;;4.93;3.60;;;12.80;99.90;;;;;;5071742;28;20360;-67
2022/01/02 03:51:18;;;;;;;4.47;3.50;;;12.80;99.90;;;;;;5108886;28;20175;-67
2022/01/02 03:53:44;;;;;;;4.57;3.83;;;12.80;99.90;;;;;;5075138;28;20172;-67
2022/01/02 03:56:10;;;;;;;4.90;3.53;;;12.80;99.90;;;;;;5070049;28;20172;-67
2022/01/02 03:58:35;;;;;;;4.55;3.50;;;12.80;99.90;;;;;;5071986;28;20204;-63
2022/01/02 04:01:03;;;;;;;4.00;3.50;;;12.80;99.90;;;;;;5072875;28;20184;-67
2022/01/02 04:03:31;;;;;;;4.43;3.13;;;12.80;99.90;;;;;;5075086;28;20218;-64
2022/01/02 04:05:59;;;;;;;4.75;3.75;;;12.80;99.90;;;;;;5073836;28;20199;-65
2022/01/02 04:08:25;;;;;;;4.80;3.38;;;12.80;99.90;;;;;;5076772;28;20196;-65
2022/01/02 04:10:53;;;;;;;4.07;3.20;;;12.80;99.90;;;;;;5075418;28;20182;-67
2022/01/02 04:13:18;;;;;;;5.22;3.25;;;12.80;99.90;;;;;;5069303;28;20180;-67
2022/01/02 04:15:46;;;;;;;4.47;3.47;;;12.90;99.90;;;;;;5078202;28;20176;-68
2022/01/02 04:18:12;;;;;;;4.07;3.10;;;12.80;99.90;;;;;;5074735;28;20182;-68
2022/01/02 04:20:37;;;;;;;3.90;3.00;;;12.90;99.90;;;;;;5079371;28;20172;-67
2022/01/02 04:23:05;;;;;;;4.03;3.15;;;12.90;99.90;;;;;;5076776;28;20202;-67
2022/01/02 04:25:31;;;;;;;3.75;3.20;;;12.90;99.90;;;;;;5078594;28;20223;-67
2022/01/02 04:27:56;;;;;;;5.05;3.28;;;12.90;99.90;;;;;;5086219;28;20212;-68
2022/01/02 04:30:22;;;;;;;4.53;3.67;;;12.90;99.90;;;;;;5095162;28;20179;-66
2022/01/02 04:32:48;;;;;;;3.85;3.38;;;12.90;99.90;;;;;;5079218;28;20230;-67
2022/01/02 04:35:14;;;;;;;4.35;3.15;;;12.90;99.90;;;;;;5078564;28;20204;-66
2022/01/02 04:37:42;;;;;;;4.47;3.80;;;12.90;99.90;;;;;;5078185;28;20223;-67
2022/01/02 04:40:11;;;;;;;4.55;3.30;;;12.90;99.90;;;;;;5075908;28;20231;-66
2022/01/02 04:42:36;;;;;;;3.83;3.25;;;12.90;99.90;;;;;;5077235;28;20190;-67
2022/01/02 04:45:02;;;;;;;4.07;3.65;;;12.90;99.90;;;;;;5073562;28;20200;-71
2022/01/02 04:47:28;;;;;;;3.80;3.33;;;12.90;99.90;;;;;;5067599;28;20181;-70
2022/01/02 04:49:56;;;;;;;4.95;3.63;;;12.90;99.90;;;;;;5081125;28;20175;-71
2022/01/02 04:52:21;;;;;;;4.78;3.65;;;12.90;99.90;;;;;;5080881;28;20199;-71
2022/01/02 04:54:50;;;;;;;4.80;3.35;;;12.90;99.90;;;;;;5078975;28;20258;-71
2022/01/02 04:57:15;;;;;;;4.82;3.58;;;12.90;99.90;;;;;;5076459;28;20176;-70
2022/01/02 04:59:41;;;;;;;5.13;3.60;;;12.90;99.90;;;;;;5077882;28;20349;-71
2022/01/02 05:02:06;;;;;;;4.50;3.60;;;12.80;99.90;;;;;;5077731;28;20191;-71
2022/01/02 05:04:35;;;;;;;3.90;3.28;;;12.80;99.90;;;;;;5110781;28;20339;-67
2022/01/02 05:07:00;;;;;;;4.05;3.30;;;12.80;99.90;;;;;;5069558;28;20191;-71
2022/01/02 05:09:28;;;;;;;4.90;3.65;;;12.80;99.90;;;;;;5075016;28;20208;-71
2022/01/02 05:11:56;;;;;;;7.43;3.40;;;12.80;99.90;;;;;;5093779;28;20195;-71
2022/01/02 05:14:22;;;;;;;4.65;3.70;;;12.70;99.90;;;;;;5082083;28;20277;-68
2022/01/02 05:16:49;;;;;;;4.88;3.60;;;12.70;99.90;;;;;;5075066;28;20192;-71
2022/01/02 05:19:15;;;;;;;4.70;3.65;;;12.70;99.90;;;;;;5078092;28;20213;-70
2022/01/02 05:21:40;;;;;;;5.15;3.67;;;12.70;99.90;;;;;;5077941;28;20172;-70
2022/01/02 05:24:11;;;;;;;6.82;4.38;;;12.70;99.90;;;;;;5076329;28;20267;-71
2022/01/02 05:26:36;;;;;;;4.70;3.80;;;12.70;99.90;;;;;;5076291;28;20211;-71
2022/01/02 05:29:05;;;;;;;5.93;3.60;;;12.70;99.90;;;;;;5075148;28;20203;-72
2022/01/02 05:31:31;;;;;;;4.78;3.85;;;12.70;99.90;;;;;;5107343;28;20176;-71
2022/01/02 05:33:59;;;;;;;4.93;3.63;;;12.60;99.90;;;;;;5077643;28;20186;-71
2022/01/02 05:36:25;;;;;;;5.95;3.60;;;12.60;99.90;;;;;;5076708;28;20188;-71
2022/01/02 05:38:51;;;;;;;4.63;3.38;;;12.60;99.90;;;;;;5074115;28;20188;-71
2022/01/02 05:41:19;;;;;;;3.53;3.08;;;12.60;99.90;;;;;;5072602;28;20176;-69
2022/01/02 05:43:47;;;;;;;4.80;3.60;;;12.60;99.90;;;;;;5073234;28;20188;-71
2022/01/02 05:46:12;;;;;;;5.40;3.80;;;12.60;99.90;;;;;;5076706;28;20260;-71
2022/01/02 05:48:41;;;;;;;4.93;3.13;;;12.60;99.90;;;;;;5076936;28;20199;-71
2022/01/02 05:51:06;;;;;;;6.85;3.53;;;12.60;99.90;;;;;;5078150;28;20259;-70
2022/01/02 05:53:32;;;;;;;5.53;3.75;;;12.60;99.90;;;;;;5077487;28;20199;-70
2022/01/02 05:56:00;;;;;;;5.47;3.85;;;12.60;99.90;;;;;;5069740;28;20180;-71
2022/01/02 05:58:28;;;;;;;4.47;3.45;;;12.60;99.90;;;;;;5070994;28;20253;-71
2022/01/02 06:00:57;;;;;;;5.13;3.58;;;12.60;99.90;;;;;;5076566;28;20232;-69
2022/01/02 06:03:25;;;;;;;4.75;3.30;;;12.60;99.90;;;;;;5076171;28;20196;-71
2022/01/02 06:05:53;;;;;;;4.63;3.58;;;12.60;99.90;;;;;;5068194;28;20267;-71
2022/01/02 06:08:21;;;;;;;3.97;3.35;;;12.60;99.90;;;;;;5072548;28;20215;-71
2022/01/02 06:10:46;;;;;;;6.22;3.60;;;12.60;99.90;;;;;;5104449;28;20179;-70
2022/01/02 06:13:14;;;;;;;6.20;3.85;;;12.60;99.90;;;;;;5077258;28;20211;-71
2022/01/02 06:15:40;;;;;;;5.30;3.83;;;12.60;99.90;;;;;;5076888;28;20176;-72
2022/01/02 06:18:08;;;;;;;4.80;4.07;;;12.60;99.90;;;;;;5072284;28;20253;-71
2022/01/02 06:20:33;;;;;;;5.90;4.50;;;12.60;99.90;;;;;;5075963;28;20194;-71
2022/01/02 06:23:01;;;;;;;5.63;4.13;;;12.50;99.90;;;;;;5078750;28;20172;-71
2022/01/02 06:25:27;;;;;;;5.63;4.00;;;12.50;99.90;;;;;;5075808;28;20394;-71
2022/01/02 06:27:55;;;;;;;4.25;3.60;;;12.50;99.90;;;;;;5077465;28;20203;-71
2022/01/02 06:30:21;;;;;;;5.40;3.75;;;12.50;99.90;;;;;;5074106;28;20169;-70
2022/01/02 06:32:54;;;;;;;4.65;3.63;;;12.50;99.90;;;;;;5106668;28;20179;-71
2022/01/02 06:35:30;;;;;;;5.72;3.50;;;12.50;99.90;;;;;;5075944;28;20172;-70
2022/01/02 06:38:01;;;;;;;4.43;3.42;;;12.50;99.90;;;;;;5075065;28;20292;-71
2022/01/02 06:40:27;;;;;;;3.90;3.00;;;12.50;99.90;;;;;;5075953;28;20179;-71
2022/01/02 06:42:53;;;;;;;4.47;3.40;;;12.50;99.90;;;;;;5069049;28;20279;-69
2022/01/02 06:45:19;;;;;;;4.35;3.50;;;12.50;99.90;;;;;;5075324;28;20215;-70
2022/01/02 06:47:44;;;;;;;3.95;3.22;;;12.60;99.90;;;;;;5093838;28;20180;-71
2022/01/02 06:50:14;;;;;;;3.75;3.30;;;12.50;99.90;;;;;;5076424;28;20239;-70
2022/01/02 06:52:44;;;;;;;4.35;3.33;;;12.50;99.90;;;;;;5076729;28;20191;-65
2022/01/02 06:55:10;;;;;;;4.40;3.28;;;12.60;99.90;;;;;;5075076;28;20172;-72
2022/01/02 06:57:36;;;;;;;4.45;3.45;;;12.60;99.90;;;;;;5074356;28;20278;-71
2022/01/02 07:00:04;;;;;;;4.65;3.40;;;12.60;99.90;;;;;;5075567;28;20168;-71
2022/01/02 07:02:32;;;;;;;4.38;3.50;;;12.60;99.90;;;;;;5072597;28;20232;-70
2022/01/02 07:04:58;;;;;;;5.82;3.50;;;12.60;99.90;;;;;;5076626;28;20206;-66
2022/01/02 07:07:26;;;;;;;4.35;3.28;;;12.60;99.90;;;;;;5074541;28;20172;-71
2022/01/02 07:09:54;;;;;;;4.65;3.72;;;12.60;99.90;;;;;;5075629;28;20213;-71
2022/01/02 07:12:20;;;;;;;3.60;2.97;;;12.60;99.90;;;;;;5074943;28;20210;-70
2022/01/02 07:14:48;;;;;;;5.07;3.10;;;12.60;99.90;;;;;;5075727;28;20172;-71
2022/01/02 07:17:16;;;;;;;3.72;3.00;;;12.60;99.90;;;;;;5076607;28;20195;-70
2022/01/02 07:19:41;;;;;;;3.95;3.10;;;12.60;99.90;;;;;;5071995;28;20177;-71
2022/01/02 07:22:09;;;;;;;3.97;2.80;;;12.60;99.90;;;;;;5074023;28;20182;-70
2022/01/02 07:24:39;;;;;;;4.15;3.03;;;12.60;99.90;;;;;;5072431;28;20275;-71
2022/01/02 07:27:07;;;;;;;3.53;3.00;;;12.70;99.90;;;;;;5105628;28;20172;-64
2022/01/02 07:29:35;;;;;;;4.25;3.00;;;12.70;99.90;;;;;;5072228;28;20200;-71
2022/01/02 07:32:03;;;;;;;4.03;3.50;;;12.70;99.90;;;;;;5071430;28;20204;-70
2022/01/02 07:34:31;;;;;;;7.50;3.75;;;12.70;99.90;;;;;;5070258;28;20216;-71
2022/01/02 07:36:59;;;;;;;5.88;3.10;;;12.70;99.90;;;;;;5076881;28;20196;-71
2022/01/02 07:39:24;;;;;;;5.20;3.28;;;12.70;99.90;;;;;;5079481;28;20194;-71
2022/01/02 07:41:52;;;;;;;3.92;3.28;;;12.70;99.90;;;;;;5076525;28;20180;-68
2022/01/02 07:44:20;;;;;;;5.85;3.28;;;12.70;99.90;;;;;;5072970;28;20183;-70
2022/01/02 07:46:46;;;;;;;3.95;3.42;;;12.60;99.90;;;;;;5065147;28;20198;-71
2022/01/02 07:49:11;;;;;;;4.50;3.35;;;12.60;99.90;;;;;;5071281;28;20196;-70
2022/01/02 07:51:37;;;;;;;4.28;3.08;;;12.60;99.90;;;;;;5065276;28;20232;-69
2022/01/02 07:54:03;;;;;;;5.38;3.33;;;12.60;99.90;;;;;;5101459;28;20164;-69
2022/01/02 07:56:28;;;;;;;3.63;3.00;;;12.60;99.90;;;;;;5075213;28;20167;-71
2022/01/02 07:58:58;;;;;;;4.00;2.70;;;12.60;99.90;;;;;;5075189;28;20217;-71
2022/01/02 08:01:24;;;;;;;4.53;2.47;;;12.60;99.90;;;;;;5082068;28;20236;-71
2022/01/02 08:03:53;;;;;;;4.10;2.85;;;12.60;99.90;;;;;;5074510;28;20167;-69
2022/01/02 08:06:18;;;;;;;3.15;2.67;;;12.70;99.90;;;;;;5071379;28;20171;-71
2022/01/02 08:08:45;;;;;;;4.72;2.83;;;12.70;99.90;;;;;;5072130;28;20364;-71
2022/01/02 08:11:12;;;;;;;4.43;2.70;;;12.70;99.90;;;;;;5066322;28;20192;-69
2022/01/02 08:13:39;;;;;;;3.17;2.70;;;12.70;99.90;;;;;;5076153;28;21303;-71
2022/01/02 08:16:05;;;;;;;3.10;2.30;;;12.70;99.90;;;;;;5063169;28;20185;-71
2022/01/02 08:18:31;;;;;;;3.15;2.47;;;12.70;99.90;;;;;;5089782;28;20199;-71
2022/01/02 08:20:57;;;;;;;2.75;2.30;;;12.80;99.90;;;;;;5104218;28;20190;-71
2022/01/02 08:23:23;;;;;;;3.00;2.38;;;12.80;99.90;;;;;;5072977;28;20184;-69
2022/01/02 08:25:49;;;;;;;2.55;2.20;;;12.80;99.90;;;;;;5073908;28;20428;-71
2022/01/02 08:28:17;;;;;;;2.72;2.30;;;12.80;99.90;;;;;;5074130;28;20191;-69
2022/01/02 08:30:48;;;;;;;2.53;2.10;;;12.90;99.90;;;;;;5065565;28;20221;-67
2022/01/02 08:33:14;;;;;;;3.42;2.08;;;12.90;99.90;;;;;;5075248;28;20168;-70
2022/01/02 08:35:44;;;;;;;2.42;2.03;;;13.00;99.90;;;;;;5075404;28;20180;-70
2022/01/02 08:38:11;;;;;;;2.55;1.90;;;13.00;99.90;;;;;;5072834;28;20200;-70
2022/01/02 08:40:38;;;;;;;2.15;1.88;;;13.00;99.90;;;;;;5106026;28;20183;-70
2022/01/02 08:43:10;;;;;;;2.30;1.80;;;13.10;99.90;;;;;;5073669;28;20206;-70
2022/01/02 08:45:38;;;;;;;2.25;1.90;;;13.10;99.90;;;;;;5074084;28;20344;-71
2022/01/02 08:48:06;;;;;;;2.05;1.77;;;13.20;99.90;;;;;;5073713;28;20259;-71
2022/01/02 08:50:33;;;;;;;1.85;1.40;;;13.20;99.90;;;;;;5075431;28;20235;-71
2022/01/02 08:52:58;;;;;;;2.55;1.55;;;13.30;99.90;;;;;;5075302;28;20165;-71
2022/01/02 08:55:26;;;;;;;3.28;1.90;;;13.40;99.90;;;;;;5072725;28;20164;-71
2022/01/02 08:57:56;;;;;;;1.98;1.50;;;13.40;99.90;;;;;;5073101;28;20246;-70
2022/01/02 09:00:25;;;;;;;1.77;1.50;;;13.50;99.90;;;;;;5102252;28;20269;-69
2022/01/02 09:02:53;;;;;;;1.52;1.23;;;13.60;99.90;;;;;;5079523;28;20177;-71
2022/01/02 09:05:19;;;;;;;2.15;1.30;;;13.70;99.90;;;;;;5077539;28;20176;-70
2022/01/02 09:07:45;;;;;;;1.55;1.30;;;13.70;99.90;;;;;;5076686;28;20202;-71
2022/01/02 09:10:15;;;;;;;2.15;1.48;;;13.90;99.90;;;;;;5075113;28;20207;-69
2022/01/02 09:12:40;;;;;;;2.33;1.80;;;13.90;99.90;;;;;;5076195;28;20179;-70
2022/01/02 09:15:09;;;;;;;2.70;1.90;;;14.00;99.90;;;;;;5075911;28;20172;-69
2022/01/02 09:17:39;;;;;;;2.33;1.55;;;14.10;99.90;;;;;;5076557;28;20202;-72
2022/01/02 09:20:07;;;;;;;3.03;1.50;;;14.20;99.90;;;;;;5075576;28;20187;-71
2022/01/02 09:22:37;;;;;;;2.30;1.60;;;14.20;99.90;;;;;;5104492;28;20180;-71
2022/01/02 09:25:05;;;;;;;1.70;1.40;;;14.30;99.90;;;;;;5073801;28;20199;-72
2022/01/02 09:27:31;;;;;;;2.58;1.73;;;14.30;99.90;;;;;;5075169;28;20243;-71
2022/01/02 09:29:59;;;;;;;2.47;1.88;;;14.40;99.90;;;;;;5076393;28;20219;-71
2022/01/02 09:32:29;;;;;;;2.30;1.83;;;14.40;99.90;;;;;;5070483;28;20208;-71
2022/01/02 09:34:55;;;;;;;2.65;1.80;;;14.40;99.90;;;;;;5078328;28;20183;-72
2022/01/02 09:37:21;;;;;;;2.97;1.90;;;14.40;99.90;;;;;;5077841;28;20206;-72
2022/01/02 09:39:46;;;;;;;2.53;1.88;;;14.40;99.90;;;;;;5076480;28;20187;-72
2022/01/02 09:42:12;;;;;;;2.08;1.70;;;14.40;99.90;;;;;;5076906;28;20187;-69
2022/01/02 09:44:38;;;;;;;2.13;1.80;;;14.40;99.90;;;;;;5081574;28;20256;-72
2022/01/02 09:47:04;;;;;;;2.63;1.90;;;14.40;99.90;;;;;;5079010;28;20274;-69
2022/01/02 09:49:36;;;;;;;2.65;1.70;;;14.40;99.90;;;;;;5075412;28;20204;-69
2022/01/02 09:52:02;;;;;;;2.45;1.75;;;14.40;99.90;;;;;;5077265;28;20195;-72
2022/01/02 09:54:27;;;;;;;2.72;1.60;;;14.40;99.90;;;;;;5074973;28;20184;-72
2022/01/02 09:56:53;;;;;;;2.83;1.75;;;14.40;99.90;;;;;;5085627;28;20243;-72
2022/01/02 09:59:19;;;;;;;2.15;1.63;;;14.40;99.90;;;;;;5079938;28;20196;-72
2022/01/02 10:01:44;;;;;;;2.63;1.90;;;14.50;99.90;;;;;;5088902;28;20172;-72
2022/01/02 10:04:10;;;;;;;2.88;1.80;;;14.50;99.90;;;;;;5076736;28;20323;-72
2022/01/02 10:06:46;;;;;;;3.22;1.90;;;14.60;99.90;;;;;;5076897;28;20226;-73
2022/01/02 10:09:34;;;;;;;3.30;2.08;;;14.60;99.90;;;;;;5071401;28;20192;-69
2022/01/02 10:12:19;;;;;;;2.45;1.90;;;14.70;99.90;;;;;;5076561;28;20264;-72
2022/01/02 10:14:44;;;;;;;3.13;1.80;;;14.80;99.90;;;;;;5077473;28;20271;-71
2022/01/02 10:17:15;;;;;;;2.33;2.00;;;14.80;99.90;;;;;;5077036;28;20271;-72
2022/01/02 10:19:42;;;;;;;2.22;1.88;;;14.90;99.90;;;;;;5077399;28;20236;-72
2022/01/02 10:22:08;;;;;;;3.13;1.88;;;14.90;99.90;;;;;;5078217;28;20190;-70
2022/01/02 10:24:37;;;;;;;2.30;1.83;;;15.00;99.90;;;;;;5076067;28;20187;-69
2022/01/02 10:27:21;;;;;;;2.13;1.73;;;15.00;99.90;;;;;;5075726;28;20173;-70
2022/01/02 10:29:56;;;;;;;1.95;1.60;;;15.00;99.90;;;;;;5074739;28;20196;-71
2022/01/02 10:32:27;;;;;;;3.58;2.33;;;15.00;99.90;;;;;;5075168;28;20191;-73
2022/01/02 10:35:26;;;;;;;2.38;1.77;;;15.00;99.90;;;;;;5072847;28;20176;-72
2022/01/02 10:37:57;;;;;;;2.67;1.83;;;15.10;99.90;;;;;;5090096;28;20194;-72
2022/01/02 10:40:36;;;;;;;3.13;1.95;;;15.10;99.90;;;;;;5073925;28;20318;-73
2022/01/02 10:43:05;;;;;;;2.65;1.80;;;15.10;99.90;;;;;;5076076;28;20418;-71
2022/01/02 10:45:37;;;;;;;2.20;1.50;;;15.20;99.90;;;;;;5073466;28;20218;-72
2022/01/02 10:48:04;;;;;;;2.67;1.80;;;15.30;99.90;;;;;;5085433;28;20276;-73
2022/01/02 10:50:31;;;;;;;2.03;1.65;;;15.40;99.90;;;;;;5076097;28;20219;-72
2022/01/02 10:53:09;;;;;;;2.05;1.60;;;15.50;99.90;;;;;;5075943;28;20184;-71
2022/01/02 10:55:37;;;;;;;2.35;1.75;;;15.60;99.90;;;;;;5071918;28;20206;-72
2022/01/02 10:58:08;;;;;;;2.53;1.70;;;15.70;99.90;;;;;;5080401;28;20196;-70
2022/01/02 11:00:34;;;;;;;3.17;1.80;;;15.80;99.90;;;;;;5090024;28;20175;-71
2022/01/02 11:03:00;;;;;;;2.35;1.70;;;15.80;99.90;;;;;;5078509;28;20192;-72
2022/01/02 11:05:28;;;;;;;2.78;1.75;;;15.90;99.90;;;;;;5063783;28;20266;-71
2022/01/02 11:07:59;;;;;;;2.00;1.50;;;16.00;99.90;;;;;;5077355;28;20585;-72
2022/01/02 11:10:28;;;;;;;2.55;1.77;;;16.20;99.90;;;;;;5075842;28;20228;-72
2022/01/02 11:12:58;;;;;;;2.20;1.67;;;16.30;99.90;;;;;;5075554;28;20196;-71
2022/01/02 11:15:30;;;;;;;3.70;2.08;;;16.40;99.90;;;;;;5074272;28;20499;-73
2022/01/02 11:17:59;;;;;;;3.50;2.05;;;16.60;99.90;;;;;;5075134;28;20203;-71
2022/01/02 11:20:30;;;;;;;2.40;1.60;;;16.60;99.90;;;;;;5108353;27;20182;-73
2022/01/02 11:23:22;;;;;;;2.47;1.70;;;16.70;99.90;;;;;;5072247;28;20172;-72
2022/01/02 11:25:52;;;;;;;2.58;1.70;;;16.60;99.90;;;;;;5085289;28;20203;-71
2022/01/02 11:28:41;;;;;;;2.67;1.83;;;16.70;99.90;;;;;;5077794;28;20290;-70
2022/01/02 11:31:09;;;;;;;2.75;1.83;;;16.60;99.90;;;;;;5082341;28;20229;-71
2022/01/02 11:33:40;;;;;;;2.38;1.60;;;16.60;99.90;;;;;;5075661;28;20187;-70
2022/01/02 11:36:27;;;;;;;2.95;1.60;;;16.60;99.90;;;;;;5074397;28;20176;-71
2022/01/02 11:39:09;;;;;;;1.80;1.40;;;16.60;99.90;;;;;;5089327;28;20187;-70
2022/01/02 11:41:47;;;;;;;2.97;1.77;;;16.50;99.90;;;;;;5077767;28;20185;-71
2022/01/02 11:44:23;;;;;;;2.22;1.55;;;16.50;99.90;;;;;;5080041;28;20174;-72
2022/01/02 11:46:56;;;;;;;3.15;1.65;;;16.50;99.90;;;;;;5071128;28;20539;-71
2022/01/02 11:49:25;;;;;;;4.25;1.80;;;16.60;99.90;;;;;;5069277;28;20203;-72
2022/01/02 11:51:54;;;;;;;5.53;2.80;;;16.70;99.90;;;;;;5070972;28;20171;-71
2022/01/02 11:54:39;;;;;;;4.43;2.20;;;16.80;99.90;;;;;;5068778;28;20286;-73
2022/01/02 11:57:11;;;;;;;4.50;1.80;;;17.00;99.90;;;;;;5074716;28;20168;-73
2022/01/02 11:59:39;;;;;;;3.45;2.08;;;17.20;99.90;;;;;;5070852;28;20280;-73
2022/01/02 12:02:09;;;;;;;2.08;1.67;;;17.40;99.90;;;;;;5074156;28;20188;-73
2022/01/02 12:05:12;;;;;;;2.55;1.70;;;17.50;99.90;;;;;;5075115;28;20256;-73
2022/01/02 12:07:45;;;;;;;3.10;1.90;;;17.60;99.90;;;;;;5065496;28;20212;-73
2022/01/02 12:10:16;;;;;;;2.67;1.70;;;17.80;99.90;;;;;;5079160;28;20172;-73
2022/01/02 12:12:59;;;;;;;3.92;1.92;;;17.70;99.90;;;;;;5070546;28;20180;-72
2022/01/02 12:15:45;;;;;;;3.50;2.10;;;17.60;99.90;;;;;;5078168;28;20277;-72
2022/01/02 12:18:10;;;;;;;3.85;2.00;;;17.50;99.90;;;;;;5078128;28;20168;-72
2022/01/02 12:20:57;;;;;;;3.75;1.90;;;17.30;99.90;;;;;;5074220;28;20207;-71
2022/01/02 12:23:42;;;;;;;2.72;1.73;;;17.20;99.90;;;;;;5062749;28;20182;-72
2022/01/02 12:26:16;;;;;;;2.22;1.80;;;17.10;99.90;;;;;;5074716;28;20180;-73
2022/01/02 12:28:57;;;;;;;1.95;1.45;;;17.00;99.90;;;;;;5102019;28;20192;-73
2022/01/02 12:31:45;;;;;;;3.20;1.90;;;17.00;99.90;;;;;;5072071;28;20272;-72
2022/01/02 12:34:12;;;;;;;3.03;1.88;;;17.00;99.90;;;;;;5072535;28;20207;-67
2022/01/02 12:36:41;;;;;;;5.18;1.80;;;17.10;99.90;;;;;;5079181;28;20171;-71
2022/01/02 12:39:12;;;;;;;3.55;1.75;;;17.20;99.90;;;;;;5075070;28;20187;-71
2022/01/02 12:41:40;;;;;;;3.70;1.90;;;17.20;99.90;;;;;;5087021;28;20230;-71
2022/01/02 12:44:07;;;;;;;4.07;1.73;;;17.20;99.90;;;;;;5077972;28;20249;-73
2022/01/02 12:46:51;;;;;;;3.90;1.85;;;17.10;99.90;;;;;;5075649;28;20245;-72
2022/01/02 12:49:28;;;;;;;2.83;1.85;;;17.00;99.90;;;;;;5068829;28;20200;-72
2022/01/02 12:52:01;;;;;;;2.45;1.50;;;17.00;99.90;;;;;;5077649;28;20270;-72
2022/01/02 12:54:32;;;;;;;4.00;1.58;;;16.90;99.90;;;;;;5075903;28;20226;-66
2022/01/02 12:57:01;;;;;;;3.63;1.70;;;16.90;99.90;;;;;;5077964;28;20210;-67
2022/01/02 12:59:34;;;;;;;3.08;1.75;;;16.80;99.90;;;;;;5076326;28;20271;-66
2022/01/02 13:02:06;;;;;;;3.13;1.50;;;16.80;99.90;;;;;;5078574;28;20196;-66
2022/01/02 13:04:33;;;;;;;2.90;1.60;;;16.70;99.90;;;;;;5075123;28;20316;-65
2022/01/02 13:07:22;;;;;;;3.97;1.73;;;16.70;99.90;;;;;;5111908;27;20535;-67